Hauptseite
METAR-TAF:

METAR-TAF

Flughäfen :

Niederstetten, Deutschland

Heeresflugplatz Niederstetten

Breite: 49-24N, Länge: 009-58E, Höhe: 468 m

Beobachtung

Neuester Wetterbericht von vor 35 Minuten, um 09:20 UTC
Wind 11 kt aus Ost/Südost
Temperatur 20°C
Luftfeuchtigkeit 40%
Luftdruck 1030 hPa
Sichtweite 10 km oder mehr
Leicht bewölkt in der Höhe von 28000 ft

METAR: ETHN 190920Z 11011KT 9999 FEW280 20/06 Q1030 BLU+BLU+

Zeit: 11:55 (09:55 UTC)

Prognose

Neuester Wetterbericht von vor 2 Stunden und 55 Minuten, um 07:00 UTC
Gültige Prognose vom 19 um 08 UTC bis 19 um 17 UTC
Wind 10 kt aus Ost
Sichtweite 10 km oder mehr
Leicht bewölkt in der Höhe von 4000 ft

TAF: ETHN 190700Z 1908/1917 10010KT 9999 NSW FEW040

Wetterbeobachtungen und Prognosen von mehr als 4000 Flughäfen (METAR und TAF Bericht).

Die verfügbaren Stationen werden durch gelbe und rote Markierungen auf der Karte dargestellt.

Führen Sie die Maus auf sie, um den Namen der Station zu sehen.

Darauf klicken, um die Beobachtung von Wetterbeobachtungen und Prognosen zu sehen.

Um die Karte zu ändern : klicken Sie auf den grünen Tasten mit einem schwarzen Kreuz Zum Vergrößern, auf den grünen Button mit einem Gedankenstrich zu verkleinern, oder auf die grünen Pfeile für benachbarte Karten.


METAR-TAF: